Terminal Aerodrome Forecast
Issued by NWS Quad Cities IA IL

Home | Current Version | Previous Version | Text Only | Print | Product List | Glossary On
Versions: 1 2 3 4 5 6 7 8 9 10 11 12 13 14 15 16 17 18 19 20 21 22 23 24 25 26 27 28
000
FTUS43 KDVN 220018 AAA
TAFDBQ
TAF AMD
KDBQ 220018Z 2200/2224 20013KT P6SM SCT200
     FM220100 22013KT P6SM VCTS SCT030CB BKN200
      TEMPO 2201/2203 VRB20G35KT 2SM TSRA BKN020CB OVC070
     FM220800 17004KT 4SM BR BKN120
     FM221500 16006KT P6SM SCT040 BKN120=

USA.gov is the U.S. government's official web portal to all federal, state and local government web resources and services.